Time;durP1;ratioP1;P1;durP2;ratioP2;P2;SDS_P1;SDS_P2;PMS_P1;PMS_P2;Temp;Humidity;BMP_temperature;BMP_pressure;BME280_temperature;BME280_humidity;BME280_pressure;Samples;Min_cycle;Max_cycle;Signal;HPM_P1;HPM_P2
2022/10/23 00:00:56;;;;;;;;;4.67;4.67;;;;;18.00;68.61;100621.94;5075115;27;45331;-72
2022/10/23 00:03:21;;;;;;;;;5.00;5.00;;;;;18.03;68.50;100620.75;5074985;27;47476;-73
2022/10/23 00:05:46;;;;;;;;;3.00;3.00;;;;;17.60;68.35;100565.13;5074146;27;45532;-75
2022/10/23 00:08:12;;;;;;;;;3.67;2.67;;;;;17.58;68.76;100563.66;5089416;27;45744;-71
2022/10/23 00:10:41;;;;;;;;;7.00;3.00;;;;;18.02;68.90;100616.38;5074041;27;45628;-74
2022/10/23 00:13:07;;;;;;;;;4.00;4.00;;;;;17.88;68.85;100591.25;5091666;27;47440;-73
2022/10/23 00:15:34;;;;;;;;;3.00;3.00;;;;;17.88;69.05;100594.78;5075829;27;45599;-75
2022/10/23 00:17:59;;;;;;;;;6.00;5.00;;;;;17.85;68.99;100587.09;5074795;27;45565;-73
2022/10/23 00:20:25;;;;;;;;;3.00;2.00;;;;;17.41;69.19;100516.59;5075655;28;45649;-71
2022/10/23 00:22:50;;;;;;;;;7.25;4.00;;;;;17.90;68.96;100598.09;5078787;27;45644;-75
2022/10/23 00:25:17;;;;;;;;;4.00;3.00;;;;;18.02;68.95;100608.31;5079222;27;45475;-75
2022/10/23 00:27:42;;;;;;;;;3.25;3.25;;;;;17.39;68.77;100510.56;5077118;28;45370;-77
2022/10/23 00:30:08;;;;;;;;;5.67;3.00;;;;;18.00;68.82;100594.22;5077866;27;45538;-74
2022/10/23 00:32:33;;;;;;;;;4.00;2.67;;;;;17.20;69.00;100469.91;5077280;27;45535;-73
2022/10/23 00:34:59;;;;;;;;;2.00;2.00;;;;;17.99;69.17;100608.69;5076052;28;45575;-76
2022/10/23 00:37:24;;;;;;;;;3.00;3.00;;;;;17.98;69.38;100597.13;5077073;27;46086;-74
2022/10/23 00:39:49;;;;;;;;;4.00;4.00;;;;;17.95;69.06;100586.75;5077582;27;45427;-73
2022/10/23 00:42:16;;;;;;;;;4.00;4.00;;;;;17.98;68.74;100596.28;5077201;27;45868;-72
2022/10/23 00:44:42;;;;;;;;;4.67;4.67;;;;;17.97;69.03;100589.25;5079025;27;45523;-75
2022/10/23 00:47:09;;;;;;;;;5.33;4.00;;;;;17.14;69.39;100454.56;5079517;27;45314;-72
2022/10/23 00:49:34;;;;;;;;;3.67;3.67;;;;;17.90;69.08;100587.34;5077107;28;46081;-73
2022/10/23 00:52:04;;;;;;;;;4.00;4.00;;;;;17.90;69.14;100568.50;5071097;28;46765;-72
2022/10/23 00:54:34;;;;;;;;;6.33;5.00;;;;;17.93;69.62;100565.44;5079248;28;47331;-74
2022/10/23 00:57:03;;;;;;;;;5.67;4.33;;;;;17.74;69.36;100544.59;5079352;27;45390;-75
2022/10/23 00:59:29;;;;;;;;;5.33;4.33;;;;;17.94;69.37;100567.09;5077931;27;45290;-74
2022/10/23 01:01:55;;;;;;;;;3.00;3.00;;;;;17.36;69.22;100463.44;5079541;27;45380;-74
2022/10/23 01:04:22;;;;;;;;;4.00;3.00;;;;;17.94;69.54;100547.44;5080448;27;45450;-73
2022/10/23 01:07:17;;;;;;;;;3.00;3.00;;;;;17.91;69.17;100543.28;5074355;27;45456;-73
2022/10/23 01:10:20;;;;;;;;;5.33;4.00;;;;;17.91;69.44;100534.38;5067830;27;45384;-73
2022/10/23 01:12:49;;;;;;;;;6.00;5.00;;;;;17.94;69.04;100537.50;5074146;27;46144;-73
2022/10/23 01:15:48;;;;;;;;;6.00;4.00;;;;;17.93;69.08;100533.16;5078840;27;45432;-73
2022/10/23 01:18:26;;;;;;;;;4.00;3.67;;;;;17.66;68.76;100488.28;5077745;28;45233;-73
2022/10/23 01:21:09;;;;;;;;;4.33;3.33;;;;;15.69;68.41;100163.44;5078403;28;45338;-73
2022/10/23 01:24:05;;;;;;;;;4.75;4.75;;;;;16.25;68.81;100250.19;5076702;27;45262;-73
2022/10/23 01:26:48;;;;;;;;;4.00;4.00;;;;;17.87;68.90;100509.75;5078260;28;45315;-74
2022/10/23 01:29:40;;;;;;;;;3.00;2.00;;;;;17.86;68.91;100505.41;5093540;27;45288;-73
2022/10/23 01:32:11;;;;;;;;;6.67;6.33;;;;;17.82;68.76;100477.25;5093653;27;45357;-72
2022/10/23 01:35:01;;;;;;;;;2.75;2.75;;;;;17.53;68.63;100421.78;5077983;27;47009;-73
2022/10/23 01:37:34;;;;;;;;;4.00;2.00;;;;;17.89;68.59;100488.84;5077942;27;46361;-75
2022/10/23 01:40:04;;;;;;;;;5.00;3.33;;;;;17.88;68.61;100511.41;5078292;27;45467;-73
2022/10/23 01:42:36;;;;;;;;;4.33;3.00;;;;;17.77;68.56;100486.91;5093764;27;45252;-74
2022/10/23 01:45:12;;;;;;;;;2.33;1.67;;;;;17.86;68.48;100494.63;5077673;27;45597;-74
2022/10/23 01:47:39;;;;;;;;;2.00;2.00;;;;;17.47;68.26;100430.66;5077619;27;45184;-75
2022/10/23 01:50:06;;;;;;;;;3.00;3.00;;;;;17.12;68.35;100394.84;5078952;27;45316;-75
2022/10/23 01:52:32;;;;;;;;;5.00;3.67;;;;;17.84;68.39;100499.38;5077638;27;45452;-74
2022/10/23 01:55:00;;;;;;;;;5.00;3.33;;;;;17.44;68.31;100427.53;5077800;27;45381;-73
2022/10/23 01:57:30;;;;;;;;;3.00;3.00;;;;;17.62;68.18;100463.63;5077857;27;45519;-75
2022/10/23 02:00:02;;;;;;;;;4.33;3.00;;;;;17.82;68.13;100477.25;5093830;27;45247;-72
2022/10/23 02:02:31;;;;;;;;;2.00;2.00;;;;;17.55;68.26;100440.41;5093599;27;45787;-73
2022/10/23 02:05:17;;;;;;;;;3.00;3.00;;;;;17.87;68.19;100477.47;5069541;27;46608;-72
2022/10/23 02:07:43;;;;;;;;;3.00;3.00;;;;;17.84;67.99;100471.66;5077343;28;45541;-73
2022/10/23 02:10:11;;;;;;;;;2.67;2.67;;;;;17.92;67.79;100468.81;5077464;27;45335;-71
2022/10/23 02:12:45;;;;;;;;;3.00;2.00;;;;;17.89;68.09;100459.28;5077800;27;45395;-73
2022/10/23 02:15:13;;;;;;;;;2.00;2.00;;;;;17.89;68.15;100459.28;5077884;27;46094;-71
2022/10/23 02:18:01;;;;;;;;;3.00;3.00;;;;;17.27;68.07;100362.50;5093331;27;45843;-75
2022/10/23 02:20:42;;;;;;;;;3.00;2.00;;;;;17.82;67.92;100447.66;5093577;27;45619;-71
2022/10/23 02:23:10;;;;;;;;;3.75;2.00;;;;;17.90;68.01;100460.94;5069454;27;45185;-73
2022/10/23 02:25:46;;;;;;;;;3.25;1.25;;;;;17.87;68.17;100453.25;5077351;27;45762;-73
2022/10/23 02:28:18;;;;;;;;;3.00;3.00;;;;;17.96;68.03;100443.16;5069779;28;45489;-73
2022/10/23 02:30:47;;;;;;;;;1.00;1.00;;;;;17.29;68.21;100342.47;5076838;27;45478;-75
2022/10/23 02:33:14;;;;;;;;;2.75;2.75;;;;;17.95;68.02;100441.50;5093363;27;45418;-73
2022/10/23 02:35:39;;;;;;;;;2.50;2.50;;;;;17.93;68.19;100433.63;5077387;27;45960;-73
2022/10/23 02:38:27;;;;;;;;;3.67;2.33;;;;;17.68;68.42;100380.56;5077383;27;45467;-72
2022/10/23 02:40:58;;;;;;;;;2.50;2.50;;;;;17.85;68.44;100412.28;5078131;27;45298;-73
2022/10/23 02:43:34;;;;;;;;;1.00;1.00;;;;;17.93;68.42;100430.94;5077979;27;45683;-73
2022/10/23 02:46:28;;;;;;;;;4.00;3.33;;;;;17.41;68.48;100331.16;5077157;27;45390;-72
2022/10/23 02:49:24;;;;;;;;;2.00;2.00;;;;;17.89;68.99;100421.63;5077537;27;45426;-73
2022/10/23 02:51:52;;;;;;;;;4.00;3.00;;;;;17.88;68.91;100408.38;5077012;28;45417;-75
2022/10/23 02:54:41;;;;;;;;;2.00;2.00;;;;;17.38;69.29;100337.75;5077202;27;45279;-76
2022/10/23 02:57:19;;;;;;;;;2.25;2.25;;;;;17.80;69.22;100414.72;5083971;27;48006;-74
2022/10/23 03:00:10;;;;;;;;;2.75;2.75;;;;;17.69;69.17;100382.22;5076685;27;45511;-76
2022/10/23 03:02:45;;;;;;;;;2.67;2.67;;;;;17.74;69.06;100372.50;5072309;27;45475;-75
2022/10/23 03:05:18;;;;;;;;;1.50;1.50;;;;;17.60;68.96;100346.56;5092393;27;45248;-73
2022/10/23 03:07:45;;;;;;;;;2.75;2.75;;;;;17.24;69.12;100272.41;5076612;27;46613;-72
2022/10/23 03:10:11;;;;;;;;;3.00;3.00;;;;;17.96;68.97;100393.91;5076495;27;45328;-73
2022/10/23 03:12:37;;;;;;;;;3.33;3.33;;;;;17.36;69.14;100290.63;5077068;27;45326;-74
2022/10/23 03:15:03;;;;;;;;;3.67;3.67;;;;;17.89;69.20;100378.59;5076628;28;45338;-71
2022/10/23 03:17:29;;;;;;;;;6.00;5.00;;;;;17.71;69.37;100348.72;5076659;27;45445;-73
2022/10/23 03:19:54;;;;;;;;;2.00;1.25;;;;;17.87;69.53;100399.47;5091864;27;45966;-74
2022/10/23 03:22:20;;;;;;;;;5.67;4.00;;;;;17.89;69.30;100394.72;5076141;27;45409;-71
2022/10/23 03:24:45;;;;;;;;;3.67;3.00;;;;;17.90;69.73;100379.41;5077031;27;45305;-74
2022/10/23 03:27:10;;;;;;;;;2.00;2.00;;;;;17.40;69.60;100286.50;5076955;27;45259;-72
2022/10/23 03:29:36;;;;;;;;;2.67;2.67;;;;;17.76;69.26;100324.75;5076878;27;45315;-74
2022/10/23 03:32:02;;;;;;;;;3.75;2.75;;;;;17.97;69.88;100344.47;5076140;27;45339;-74
2022/10/23 03:34:28;;;;;;;;;3.25;3.25;;;;;17.97;69.51;100349.84;5076797;27;45355;-74
2022/10/23 03:36:53;;;;;;;;;4.33;2.00;;;;;17.90;69.22;100344.47;5074535;28;54220;-74
2022/10/23 03:39:18;;;;;;;;;4.33;3.67;;;;;17.95;69.49;100358.13;5076308;27;45386;-73
2022/10/23 03:41:44;;;;;;;;;3.00;2.00;;;;;17.84;69.20;100335.34;5076607;27;45459;-72
2022/10/23 03:44:09;;;;;;;;;5.00;4.00;;;;;17.47;69.43;100271.25;5076791;28;45520;-72
2022/10/23 03:46:35;;;;;;;;;5.50;4.00;;;;;17.99;69.65;100355.84;5076916;27;45500;-73
2022/10/23 03:49:00;;;;;;;;;3.00;3.00;;;;;18.01;69.30;100373.44;5076332;28;45437;-73
2022/10/23 03:51:26;;;;;;;;;4.50;3.00;;;;;18.00;69.93;100358.34;5075209;27;51039;-74
2022/10/23 03:53:51;;;;;;;;;3.75;2.75;;;;;17.70;69.67;100298.66;5076785;27;45478;-73
2022/10/23 03:56:16;;;;;;;;;4.00;4.00;;;;;18.01;69.29;100370.75;5077953;27;46625;-74
2022/10/23 03:58:42;;;;;;;;;4.67;4.00;;;;;18.00;69.40;100344.88;5079937;27;46686;-74
2022/10/23 04:01:07;;;;;;;;;3.00;3.00;;;;;17.80;69.43;100314.41;5078664;27;45485;-74
2022/10/23 04:03:33;;;;;;;;;3.00;3.00;;;;;17.34;69.64;100251.34;5080129;27;45347;-73
2022/10/23 04:05:58;;;;;;;;;1.75;1.75;;;;;17.97;69.84;100376.75;5080975;27;45487;-74
2022/10/23 04:08:23;;;;;;;;;2.50;2.50;;;;;17.96;69.58;100361.63;5076196;27;48186;-73
2022/10/23 04:10:49;;;;;;;;;2.25;2.25;;;;;17.85;69.89;100345.06;5095669;27;45447;-74
2022/10/23 04:13:14;;;;;;;;;1.33;1.33;;;;;17.93;69.77;100363.72;5079814;27;45446;-74
2022/10/23 04:15:40;;;;;;;;;3.67;3.67;;;;;17.79;69.69;100337.78;5078740;27;46145;-73
2022/10/23 04:18:05;;;;;;;;;3.67;2.67;;;;;17.98;69.99;100364.97;5079383;27;47607;-72
2022/10/23 04:20:31;;;;;;;;;4.00;4.00;;;;;17.51;69.83;100267.97;5079590;27;45362;-73
2022/10/23 04:22:56;;;;;;;;;3.75;3.25;;;;;17.24;70.00;100232.09;5079689;27;45392;-73
2022/10/23 04:25:21;;;;;;;;;3.00;3.00;;;;;17.94;69.89;100368.06;5079120;27;45565;-74
2022/10/23 04:27:47;;;;;;;;;3.25;3.00;;;;;17.69;70.35;100333.81;5094981;27;45534;-72
2022/10/23 04:30:13;;;;;;;;;3.00;3.00;;;;;17.74;70.65;100358.25;5078421;27;45570;-74
2022/10/23 04:32:38;;;;;;;;;5.00;4.00;;;;;17.78;70.61;100346.06;5079557;27;45539;-71
2022/10/23 04:35:04;;;;;;;;;4.25;3.00;;;;;17.85;70.55;100358.50;5079590;27;45347;-72
2022/10/23 04:37:30;;;;;;;;;4.25;4.25;;;;;17.85;70.74;100355.00;5078919;27;45234;-72
2022/10/23 04:39:55;;;;;;;;;3.00;3.00;;;;;17.82;70.88;100345.47;5081717;28;45489;-72
2022/10/23 04:42:21;;;;;;;;;4.00;4.00;;;;;17.78;71.17;100328.06;5080376;28;45497;-72
2022/10/23 04:44:46;;;;;;;;;5.50;4.50;;;;;17.53;71.06;100271.28;5079472;27;48224;-74
2022/10/23 04:47:11;;;;;;;;;3.67;3.33;;;;;17.59;70.64;100291.13;5077336;27;59341;-74
2022/10/23 04:49:36;;;;;;;;;6.33;5.00;;;;;17.84;70.94;100338.03;5078137;27;45566;-73
2022/10/23 04:52:02;;;;;;;;;6.33;4.67;;;;;17.59;71.42;100318.00;5079110;27;45430;-73
2022/10/23 04:54:27;;;;;;;;;4.75;3.50;;;;;17.68;71.46;100349.13;5077432;27;47153;-75
2022/10/23 04:56:53;;;;;;;;;3.33;3.33;;;;;17.81;71.38;100367.16;5078843;27;45531;-75
2022/10/23 04:59:18;;;;;;;;;5.00;3.33;;;;;17.82;71.26;100385.81;5079123;27;45451;-73
2022/10/23 05:01:43;;;;;;;;;3.50;3.50;;;;;17.52;71.33;100317.16;5079164;27;45245;-70
2022/10/23 05:04:09;;;;;;;;;4.00;4.00;;;;;17.73;72.11;100341.28;5093951;27;47965;-72
2022/10/23 05:06:34;;;;;;;;;6.00;4.25;;;;;16.13;71.74;100083.59;5077353;28;45514;-74
2022/10/23 05:08:59;;;;;;;;;3.75;2.75;;;;;17.33;72.07;100271.19;5077783;27;45859;-74
2022/10/23 05:11:25;;;;;;;;;6.00;4.25;;;;;17.63;71.99;100303.16;5078906;28;45310;-72
2022/10/23 05:13:50;;;;;;;;;5.33;5.33;;;;;17.80;71.66;100320.63;5078450;27;45774;-72
2022/10/23 05:16:45;;;;;;;;;5.00;3.00;;;;;17.92;71.82;100323.56;5078469;27;45462;-73
2022/10/23 05:19:17;;;;;;;;;5.00;3.67;;;;;17.93;72.05;100326.06;5076081;27;45445;-72
2022/10/23 05:21:44;;;;;;;;;5.67;4.67;;;;;17.50;71.50;100255.56;5077469;27;45589;-78
2022/10/23 05:24:10;;;;;;;;;2.67;2.67;;;;;17.64;71.71;100269.88;5076674;28;48329;-73
2022/10/23 05:26:35;;;;;;;;;4.00;3.33;;;;;17.94;71.79;100310.75;5077923;27;45441;-72
2022/10/23 05:29:01;;;;;;;;;4.33;3.33;;;;;17.93;71.44;100299.16;5077676;27;45793;-72
2022/10/23 05:31:26;;;;;;;;;4.67;4.00;;;;;17.77;71.59;100266.41;5088086;27;45413;-73
2022/10/23 05:33:55;;;;;;;;;9.00;6.50;;;;;17.92;71.85;100280.53;5078318;28;47086;-73
2022/10/23 05:36:22;;;;;;;;;5.25;4.00;;;;;17.67;71.93;100245.28;5076862;27;45576;-73
2022/10/23 05:38:48;;;;;;;;;5.33;4.00;;;;;17.94;72.01;100273.91;5078508;27;45477;-73
2022/10/23 05:41:13;;;;;;;;;6.67;5.00;;;;;17.55;71.70;100209.25;5078413;27;45416;-72
2022/10/23 05:43:39;;;;;;;;;4.67;4.67;;;;;18.00;71.86;100287.56;5078342;27;46531;-74
2022/10/23 05:46:05;;;;;;;;;5.33;4.00;;;;;17.91;71.52;100268.94;5077721;27;45473;-72
2022/10/23 05:48:31;;;;;;;;;4.00;4.00;;;;;17.55;71.45;100201.19;5094143;27;45319;-73
2022/10/23 05:51:08;;;;;;;;;4.00;4.00;;;;;17.93;71.56;100266.88;5079328;27;45285;-73
2022/10/23 05:53:33;;;;;;;;;6.00;4.33;;;;;16.81;71.55;100109.78;5077307;27;46174;-74
2022/10/23 05:56:04;;;;;;;;;5.67;4.67;;;;;17.77;71.93;100261.88;5093350;27;45490;-74
2022/10/23 05:58:30;;;;;;;;;10.67;5.00;;;;;17.60;72.44;100239.03;5078327;27;45342;-74
2022/10/23 06:00:55;;;;;;;;;8.33;5.00;;;;;17.62;72.21;100242.38;5094230;27;45547;-73
2022/10/23 06:03:20;;;;;;;;;5.67;4.67;;;;;17.77;72.76;100287.94;5077565;27;46070;-74
2022/10/23 06:05:49;;;;;;;;;4.67;3.33;;;;;17.65;72.66;100276.91;5077567;27;45413;-71
2022/10/23 06:08:15;;;;;;;;;3.67;3.67;;;;;16.96;73.03;100156.94;5076185;27;45513;-71
2022/10/23 06:10:40;;;;;;;;;3.00;3.00;;;;;17.75;72.73;100277.38;5093653;27;45475;-74
2022/10/23 06:13:06;;;;;;;;;6.00;6.00;;;;;17.73;72.64;100276.75;5076347;27;48266;-72
2022/10/23 06:15:31;;;;;;;;;6.00;6.00;;;;;17.69;73.00;100294.31;5076589;27;45492;-74
2022/10/23 06:18:00;;;;;;;;;4.00;3.25;;;;;17.40;73.04;100216.63;5078188;27;45929;-73
2022/10/23 06:20:25;;;;;;;;;8.67;6.00;;;;;17.54;73.00;100258.66;5077850;27;45544;-75
2022/10/23 06:22:51;;;;;;;;;7.00;5.33;;;;;17.58;73.46;100268.81;5078309;27;64846;-74
2022/10/23 06:25:17;;;;;;;;;6.00;4.50;;;;;17.53;73.00;100260.53;5077557;27;46000;-76
2022/10/23 06:27:42;;;;;;;;;5.00;5.00;;;;;17.63;73.16;100270.91;5076481;27;45462;-72
2022/10/23 06:30:08;;;;;;;;;9.00;7.33;;;;;17.62;73.13;100269.25;5077950;27;45457;-73
2022/10/23 06:32:33;;;;;;;;;5.33;5.33;;;;;17.61;73.09;100260.34;5077004;27;46436;-73
2022/10/23 06:34:59;;;;;;;;;5.00;5.00;;;;;17.59;73.08;100264.25;5077721;27;45590;-72
2022/10/23 06:37:24;;;;;;;;;4.67;4.67;;;;;17.59;73.29;100248.13;5077433;27;45509;-72
2022/10/23 06:39:49;;;;;;;;;6.00;5.67;;;;;17.30;73.07;100207.09;5076524;27;45592;-74
2022/10/23 06:42:15;;;;;;;;;6.33;5.00;;;;;17.44;72.97;100215.22;5077524;27;45959;-74
2022/10/23 06:44:40;;;;;;;;;9.00;6.67;;;;;17.26;72.69;100189.72;5077156;27;45590;-74
2022/10/23 06:47:06;;;;;;;;;2.00;2.00;;;;;17.50;73.09;100231.38;5077558;27;45438;-73
2022/10/23 06:49:31;;;;;;;;;5.33;5.33;;;;;17.64;73.12;100257.28;5077379;27;45250;-73
2022/10/23 06:51:56;;;;;;;;;3.33;3.33;;;;;17.49;73.16;100226.19;5077129;27;45970;-73
2022/10/23 06:54:22;;;;;;;;;5.00;5.00;;;;;17.66;73.21;100251.69;5092700;27;46003;-73
2022/10/23 06:56:47;;;;;;;;;9.00;5.00;;;;;17.43;72.97;100213.56;5077768;27;45540;-76
2022/10/23 06:59:13;;;;;;;;;5.67;5.67;;;;;17.63;72.83;100231.41;5079304;27;45407;-74
2022/10/23 07:01:38;;;;;;;;;6.00;6.00;;;;;15.86;72.63;99937.00;5078226;27;46190;-73
2022/10/23 07:04:04;;;;;;;;;4.67;4.67;;;;;17.63;73.02;100222.53;5092617;27;45366;-73
2022/10/23 07:06:29;;;;;;;;;6.67;6.67;;;;;17.70;73.05;100222.56;5092669;27;45455;-69
2022/10/23 07:08:55;;;;;;;;;6.67;5.33;;;;;17.39;72.94;100183.56;5092373;27;45559;-72
2022/10/23 07:11:20;;;;;;;;;10.00;7.00;;;;;17.73;72.65;100227.53;5076470;27;45642;-74
2022/10/23 07:13:46;;;;;;;;;7.00;7.00;;;;;17.23;72.74;100135.59;5076636;27;45441;-74
2022/10/23 07:16:20;;;;;;;;;7.00;6.00;;;;;17.54;72.74;100169.97;5075689;27;45407;-73
2022/10/23 07:18:47;;;;;;;;;6.33;6.00;;;;;17.83;72.31;100228.81;5072447;28;45414;-72
2022/10/23 07:21:12;;;;;;;;;6.00;6.00;;;;;17.53;72.25;100171.00;5075774;27;46559;-72
2022/10/23 07:23:38;;;;;;;;;6.33;6.00;;;;;17.82;72.23;100213.72;5069861;28;45549;-72
2022/10/23 07:26:15;;;;;;;;;6.00;6.00;;;;;17.90;72.22;100216.19;5075754;28;45282;-73
2022/10/23 07:28:43;;;;;;;;;6.67;6.67;;;;;17.73;72.16;100173.75;5082621;27;45515;-75
2022/10/23 07:31:09;;;;;;;;;11.00;9.33;;;;;18.18;71.97;100236.69;5079505;27;45608;-74
2022/10/23 07:33:35;;;;;;;;;8.33;7.00;;;;;18.26;71.17;100223.06;5091135;27;45699;-74
2022/10/23 07:36:02;;;;;;;;;10.00;7.00;;;;;18.32;70.96;100227.59;5078362;27;45393;-71
2022/10/23 07:38:27;;;;;;;;;6.00;6.00;;;;;18.31;70.67;100220.56;5083506;27;45459;-71
2022/10/23 07:40:56;;;;;;;;;8.67;7.67;;;;;18.23;70.35;100180.44;5075415;27;46474;-75
2022/10/23 07:43:21;;;;;;;;;6.33;6.33;;;;;18.61;70.40;100222.81;5076971;27;45264;-72
2022/10/23 07:45:48;;;;;;;;;6.50;6.00;;;;;18.40;69.67;100170.88;5078161;27;45390;-74
2022/10/23 07:48:13;;;;;;;;;8.67;5.67;;;;;16.82;69.55;99907.41;5085965;27;45671;-70
2022/10/23 07:50:39;;;;;;;;;7.50;6.00;;;;;18.60;69.00;100197.75;5078351;27;45880;-72
2022/10/23 07:53:04;;;;;;;;;7.67;6.67;;;;;18.36;69.15;100158.88;5092347;27;45338;-73
2022/10/23 07:55:29;;;;;;;;;9.00;6.00;;;;;18.77;68.74;100215.16;5085283;27;45535;-71
2022/10/23 07:57:55;;;;;;;;;7.67;6.33;;;;;18.61;69.03;100185.94;5078635;27;45544;-72
2022/10/23 08:00:20;;;;;;;;;8.67;6.00;;;;;18.88;68.69;100221.78;5076024;27;46287;-72
2022/10/23 08:02:45;;;;;;;;;6.00;6.00;;;;;18.73;68.20;100189.69;5079727;27;45445;-73
2022/10/23 08:05:11;;;;;;;;;9.67;6.33;;;;;19.04;68.12;100215.94;5079595;27;45313;-74
2022/10/23 08:07:36;;;;;;;;;8.33;7.00;;;;;19.12;67.89;100207.63;5080407;27;45582;-71
2022/10/23 08:10:02;;;;;;;;;8.00;7.33;;;;;19.15;67.00;100198.28;5075650;27;47410;-70
2022/10/23 08:12:28;;;;;;;;;9.00;7.00;;;;;19.06;67.10;100161.84;5078381;27;47225;-73
2022/10/23 08:14:53;;;;;;;;;5.67;5.67;;;;;19.62;66.24;100199.75;5076203;27;45194;-71
2022/10/23 08:17:18;;;;;;;;;5.33;5.33;;;;;20.07;65.23;100202.38;5077676;27;45487;-73
2022/10/23 08:19:46;;;;;;;;;7.00;7.00;;;;;20.29;64.12;100197.41;5076567;28;45432;-73
2022/10/23 08:22:11;;;;;;;;;8.33;7.00;;;;;20.35;63.49;100197.34;5076397;27;45471;-72
2022/10/23 08:24:37;;;;;;;;;9.67;8.00;;;;;20.39;63.48;100203.13;5076906;27;45287;-76
2022/10/23 08:27:02;;;;;;;;;6.00;6.00;;;;;20.01;63.15;100127.66;5075201;27;45708;-72
2022/10/23 08:29:28;;;;;;;;;5.00;5.00;;;;;19.49;62.46;100007.53;5093345;27;45422;-69
2022/10/23 08:31:55;;;;;;;;;8.00;8.00;;;;;20.71;61.94;100168.78;5076155;27;45468;-72
2022/10/23 08:34:20;;;;;;;;;6.25;5.00;;;;;20.69;61.56;100154.69;5077066;27;45470;-72
2022/10/23 08:36:46;;;;;;;;;9.00;6.50;;;;;21.03;61.25;100191.09;5077106;27;45571;-76
2022/10/23 08:39:11;;;;;;;;;7.00;4.00;;;;;21.04;60.64;100162.19;5078248;27;45760;-72
2022/10/23 08:41:42;;;;;;;;;5.33;5.33;;;;;21.52;60.20;100191.94;5077474;28;45497;-75
2022/10/23 08:44:20;;;;;;;;;7.67;4.67;;;;;21.40;59.05;100167.56;5080426;27;45332;-74
2022/10/23 08:46:52;;;;;;;;;6.50;5.25;;;;;21.61;59.15;100197.84;5081023;27;45345;-72
2022/10/23 08:49:40;;;;;;;;;4.75;3.50;;;;;21.53;59.32;100191.72;5074435;27;46756;-76
2022/10/23 08:52:17;;;;;;;;;7.00;6.00;;;;;21.68;58.51;100190.50;5083078;27;45402;-73
2022/10/23 08:55:03;;;;;;;;;5.00;5.00;;;;;21.30;58.47;100110.50;5083683;27;45251;-73
2022/10/23 08:57:35;;;;;;;;;9.00;5.00;;;;;21.84;58.28;100184.44;5079119;27;45562;-74
2022/10/23 09:00:06;;;;;;;;;4.50;4.00;;;;;21.86;57.32;100144.44;5075043;27;46962;-76
2022/10/23 09:02:40;;;;;;;;;7.00;6.00;;;;;22.49;55.97;100187.13;5077797;27;45515;-72
2022/10/23 09:05:20;;;;;;;;;6.25;6.25;;;;;21.30;56.00;99977.19;5079120;27;45275;-71
2022/10/23 09:08:03;;;;;;;;;6.00;6.00;;;;;22.42;55.20;100175.56;5079798;27;45409;-76
2022/10/23 09:10:56;;;;;;;;;6.75;6.25;;;;;22.35;55.90;100180.28;5079206;27;45682;-77
2022/10/23 09:13:27;;;;;;;;;4.75;4.75;;;;;22.50;55.30;100182.53;5079433;27;45423;-73
2022/10/23 09:16:06;;;;;;;;;7.00;7.00;;;;;23.08;53.97;100179.78;5094241;27;45488;-72
2022/10/23 09:18:32;;;;;;;;;5.50;5.00;;;;;23.31;53.71;100173.47;5094736;27;45635;-74
2022/10/23 09:20:59;;;;;;;;;7.75;6.25;;;;;23.48;53.01;100171.63;5094782;27;48918;-72
2022/10/23 09:23:24;;;;;;;;;7.00;6.00;;;;;23.36;52.73;100147.25;5077807;27;45509;-72
2022/10/23 09:25:55;;;;;;;;;6.67;4.33;;;;;23.05;52.21;100098.94;5078968;27;54801;-71
2022/10/23 09:28:26;;;;;;;;;5.75;5.75;;;;;23.43;53.05;100166.13;5079557;27;45339;-73
2022/10/23 09:30:52;;;;;;;;;5.50;5.50;;;;;23.34;52.58;100173.81;5079449;27;45569;-72
2022/10/23 09:33:21;;;;;;;;;4.00;4.00;;;;;23.12;53.28;100142.16;5078631;27;45351;-69
2022/10/23 09:36:17;;;;;;;;;6.50;5.25;;;;;23.27;52.84;100166.88;5078516;27;45483;-74
2022/10/23 09:38:45;;;;;;;;;7.25;6.00;;;;;23.14;52.99;100157.13;5079439;27;45543;-71
2022/10/23 09:41:28;;;;;;;;;5.50;4.75;;;;;22.77;53.25;100132.19;5078943;28;46623;-72
2022/10/23 09:44:00;;;;;;;;;5.00;4.00;;;;;22.76;53.87;100154.94;5070929;28;45411;-71
2022/10/23 09:46:39;;;;;;;;;6.00;6.00;;;;;22.17;53.51;100071.03;5075163;27;45311;-72
2022/10/23 09:49:06;;;;;;;;;6.50;5.00;;;;;22.56;53.32;100152.59;5072171;27;45502;-71
2022/10/23 09:51:32;;;;;;;;;6.00;5.00;;;;;22.39;53.84;100132.72;5075855;27;46004;-71
2022/10/23 09:53:59;;;;;;;;;6.50;6.00;;;;;22.48;54.14;100152.97;5097196;27;45408;-74
2022/10/23 09:56:39;;;;;;;;;5.00;5.00;;;;;22.38;53.63;100125.66;5078589;27;45456;-71
2022/10/23 09:59:20;;;;;;;;;6.75;5.00;;;;;22.22;53.65;100116.34;5094462;27;45502;-72
2022/10/23 10:01:56;;;;;;;;;6.25;6.25;;;;;22.48;53.57;100141.31;5078335;28;45696;-73
2022/10/23 10:04:38;;;;;;;;;6.75;5.25;;;;;22.40;53.90;100140.59;5077009;28;45409;-70
2022/10/23 10:07:16;;;;;;;;;4.50;4.25;;;;;22.37;54.51;100137.53;5072217;27;45265;-72
2022/10/23 10:09:42;;;;;;;;;6.00;4.00;;;;;22.18;54.12;100112.47;5078364;27;45532;-71
2022/10/23 10:12:30;;;;;;;;;6.00;5.00;;;;;22.32;53.71;100132.84;5078426;27;45685;-72
2022/10/23 10:15:20;;;;;;;;;5.50;4.50;;;;;22.30;53.82;100129.53;5074780;27;45465;-77
2022/10/23 10:18:12;;;;;;;;;4.00;4.00;;;;;22.30;54.56;100128.72;5073119;27;45540;-71
2022/10/23 10:20:59;;;;;;;;;5.25;5.25;;;;;22.28;54.27;100136.25;5075819;27;45305;-71
2022/10/23 10:23:44;;;;;;;;;5.50;4.00;;;;;22.23;54.27;100141.56;5077890;27;46540;-73
2022/10/23 10:26:39;;;;;;;;;6.75;6.00;;;;;22.30;54.69;100131.44;5050391;27;45528;-72
2022/10/23 10:29:35;;;;;;;;;4.33;4.33;;;;;22.34;54.23;100132.59;4991708;28;45508;-71
2022/10/23 10:32:26;;;;;;;;;7.75;6.75;;;;;22.20;53.52;100104.09;4990824;28;45599;-73
2022/10/23 10:35:06;;;;;;;;;5.67;5.67;;;;;22.17;53.95;100103.50;4997065;28;46370;-74
2022/10/23 10:37:58;;;;;;;;;3.00;3.00;;;;;22.24;54.28;100102.59;4994215;28;45326;-78
2022/10/23 10:40:32;;;;;;;;;5.67;5.00;;;;;22.39;54.03;100114.56;5005969;28;45615;-72
2022/10/23 10:43:27;;;;;;;;;4.00;4.00;;;;;22.46;54.02;100122.59;5013077;28;45619;-73
2022/10/23 10:46:08;;;;;;;;;5.33;5.00;;;;;22.51;53.54;100122.69;4997809;28;46144;-71
2022/10/23 10:48:55;;;;;;;;;5.00;3.67;;;;;22.45;54.14;100120.94;4998097;28;45401;-73
2022/10/23 10:51:37;;;;;;;;;6.33;4.67;;;;;21.97;53.69;100010.97;4998448;28;45437;-74
2022/10/23 10:54:27;;;;;;;;;9.67;9.67;;;;;22.64;53.11;100098.06;4999390;28;45499;-73
2022/10/23 10:56:55;;;;;;;;;5.00;5.00;;;;;22.43;53.21;100058.06;4998207;28;45335;-74
2022/10/23 10:59:31;;;;;;;;;26.67;22.00;;;;;22.66;54.88;100089.69;4996467;28;46804;-74
2022/10/23 11:02:26;;;;;;;;;20.00;18.67;;;;;22.86;53.34;100105.59;4997538;28;45468;-72
2022/10/23 11:05:01;;;;;;;;;9.00;8.00;;;;;22.73;54.07;100080.38;4987489;28;45396;-75
2022/10/23 11:07:36;;;;;;;;;9.00;7.33;;;;;22.64;53.28;100046.59;4996620;28;45643;-74
2022/10/23 11:10:12;;;;;;;;;6.67;6.67;;;;;22.96;53.51;100090.34;4997207;28;45460;-76
2022/10/23 11:12:39;;;;;;;;;2.75;2.00;;;;;22.75;53.42;100047.59;5012880;28;45450;-75
2022/10/23 11:15:12;;;;;;;;;5.33;5.00;;;;;22.84;53.00;100051.63;5012724;28;45502;-73
2022/10/23 11:17:42;;;;;;;;;5.00;5.00;;;;;23.04;52.30;100084.56;4997590;28;46705;-72
2022/10/23 11:20:21;;;;;;;;;5.50;4.00;;;;;22.75;51.88;100026.75;4997163;28;45471;-72
2022/10/23 11:23:01;;;;;;;;;3.25;3.25;;;;;22.50;51.78;99961.22;5009273;28;45303;-73
2022/10/23 11:25:48;;;;;;;;;4.00;4.00;;;;;23.17;51.17;100061.72;4989120;28;45412;-73
2022/10/23 11:28:20;;;;;;;;;3.00;3.00;;;;;22.48;51.44;99941.69;5010885;28;46990;-74
2022/10/23 11:30:56;;;;;;;;;4.00;4.00;;;;;23.23;51.59;100054.53;4996472;28;45548;-73
2022/10/23 11:33:53;;;;;;;;;4.00;3.00;;;;;23.29;51.48;100057.06;5012341;28;45353;-73
2022/10/23 11:36:34;;;;;;;;;4.00;4.00;;;;;23.35;51.58;100064.22;4988543;28;45559;-75
2022/10/23 11:39:16;;;;;;;;;3.25;2.25;;;;;23.33;51.21;100051.97;4998057;28;46391;-74
2022/10/23 11:41:52;;;;;;;;;4.00;4.00;;;;;23.38;51.75;100050.16;4996833;28;45660;-75